sensor_id;sensor_type;location;lat;lon;timestamp;P1;durP1;ratioP1;P2;durP2;ratioP2
7406;SDS011;3745;56.964;24.128;2023-05-21T00:00:48;3.40;;;3.10;;
7406;SDS011;3745;56.964;24.128;2023-05-21T00:03:15;5.70;;;2.80;;
7406;SDS011;3745;56.964;24.128;2023-05-21T00:05:42;5.88;;;3.03;;
7406;SDS011;3745;56.964;24.128;2023-05-21T00:08:09;3.75;;;3.10;;
7406;SDS011;3745;56.964;24.128;2023-05-21T00:10:34;3.40;;;3.20;;
7406;SDS011;3745;56.964;24.128;2023-05-21T00:13:00;6.53;;;2.97;;
7406;SDS011;3745;56.964;24.128;2023-05-21T00:15:26;7.43;;;2.90;;
7406;SDS011;3745;56.964;24.128;2023-05-21T00:17:52;3.30;;;3.00;;
7406;SDS011;3745;56.964;24.128;2023-05-21T00:20:17;3.20;;;2.97;;
7406;SDS011;3745;56.964;24.128;2023-05-21T00:22:43;4.70;;;3.13;;
7406;SDS011;3745;56.964;24.128;2023-05-21T00:25:09;2.75;;;2.58;;
7406;SDS011;3745;56.964;24.128;2023-05-21T00:27:36;4.72;;;3.50;;
7406;SDS011;3745;56.964;24.128;2023-05-21T00:30:02;4.28;;;3.08;;
7406;SDS011;3745;56.964;24.128;2023-05-21T00:32:28;3.20;;;2.90;;
7406;SDS011;3745;56.964;24.128;2023-05-21T00:34:54;4.45;;;3.58;;
7406;SDS011;3745;56.964;24.128;2023-05-21T00:37:20;3.63;;;3.35;;
7406;SDS011;3745;56.964;24.128;2023-05-21T00:39:46;4.63;;;3.00;;
7406;SDS011;3745;56.964;24.128;2023-05-21T00:42:11;3.10;;;2.80;;
7406;SDS011;3745;56.964;24.128;2023-05-21T00:44:42;3.97;;;3.20;;
7406;SDS011;3745;56.964;24.128;2023-05-21T00:47:09;4.82;;;3.25;;
7406;SDS011;3745;56.964;24.128;2023-05-21T00:49:37;4.53;;;3.17;;
7406;SDS011;3745;56.964;24.128;2023-05-21T00:52:03;3.50;;;3.30;;
7406;SDS011;3745;56.964;24.128;2023-05-21T00:54:29;4.90;;;2.90;;
7406;SDS011;3745;56.964;24.128;2023-05-21T00:56:55;5.63;;;3.17;;
7406;SDS011;3745;56.964;24.128;2023-05-21T00:59:22;4.13;;;3.13;;
7406;SDS011;3745;56.964;24.128;2023-05-21T01:01:48;3.47;;;2.78;;
7406;SDS011;3745;56.964;24.128;2023-05-21T01:04:21;4.40;;;3.45;;
7406;SDS011;3745;56.964;24.128;2023-05-21T01:06:47;5.95;;;3.42;;
7406;SDS011;3745;56.964;24.128;2023-05-21T01:09:13;3.30;;;3.03;;
7406;SDS011;3745;56.964;24.128;2023-05-21T01:11:40;4.07;;;3.58;;
7406;SDS011;3745;56.964;24.128;2023-05-21T01:14:09;6.25;;;3.55;;
7406;SDS011;3745;56.964;24.128;2023-05-21T01:16:36;6.38;;;3.08;;
7406;SDS011;3745;56.964;24.128;2023-05-21T01:19:05;4.57;;;3.00;;
7406;SDS011;3745;56.964;24.128;2023-05-21T01:21:35;3.42;;;3.13;;
7406;SDS011;3745;56.964;24.128;2023-05-21T01:24:05;4.75;;;2.97;;
7406;SDS011;3745;56.964;24.128;2023-05-21T01:26:32;3.20;;;2.70;;
7406;SDS011;3745;56.964;24.128;2023-05-21T01:29:03;3.60;;;3.40;;
7406;SDS011;3745;56.964;24.128;2023-05-21T01:31:33;9.23;;;3.03;;
7406;SDS011;3745;56.964;24.128;2023-05-21T01:34:05;5.32;;;3.45;;
7406;SDS011;3745;56.964;24.128;2023-05-21T01:36:37;3.83;;;3.53;;
7406;SDS011;3745;56.964;24.128;2023-05-21T01:39:22;6.03;;;3.40;;
7406;SDS011;3745;56.964;24.128;2023-05-21T01:41:54;5.93;;;3.30;;
7406;SDS011;3745;56.964;24.128;2023-05-21T01:44:21;3.50;;;3.30;;
7406;SDS011;3745;56.964;24.128;2023-05-21T01:46:49;3.65;;;3.28;;
7406;SDS011;3745;56.964;24.128;2023-05-21T01:49:18;5.25;;;3.13;;
7406;SDS011;3745;56.964;24.128;2023-05-21T01:51:45;7.38;;;3.15;;
7406;SDS011;3745;56.964;24.128;2023-05-21T01:54:12;6.18;;;3.28;;
7406;SDS011;3745;56.964;24.128;2023-05-21T01:56:38;3.15;;;2.95;;
7406;SDS011;3745;56.964;24.128;2023-05-21T01:59:04;3.33;;;3.03;;
7406;SDS011;3745;56.964;24.128;2023-05-21T02:01:30;5.78;;;2.80;;
7406;SDS011;3745;56.964;24.128;2023-05-21T02:03:56;3.60;;;3.10;;
7406;SDS011;3745;56.964;24.128;2023-05-21T02:06:22;4.80;;;3.20;;
7406;SDS011;3745;56.964;24.128;2023-05-21T02:08:47;4.55;;;3.47;;
7406;SDS011;3745;56.964;24.128;2023-05-21T02:11:13;4.00;;;3.40;;
7406;SDS011;3745;56.964;24.128;2023-05-21T02:13:39;3.53;;;3.22;;
7406;SDS011;3745;56.964;24.128;2023-05-21T02:16:07;5.90;;;3.50;;
7406;SDS011;3745;56.964;24.128;2023-05-21T02:18:42;7.95;;;3.45;;
7406;SDS011;3745;56.964;24.128;2023-05-21T02:21:08;4.95;;;3.28;;
7406;SDS011;3745;56.964;24.128;2023-05-21T02:23:37;7.00;;;3.72;;
7406;SDS011;3745;56.964;24.128;2023-05-21T02:26:02;6.60;;;3.60;;
7406;SDS011;3745;56.964;24.128;2023-05-21T02:28:28;8.15;;;4.03;;
7406;SDS011;3745;56.964;24.128;2023-05-21T02:30:54;5.05;;;3.33;;
7406;SDS011;3745;56.964;24.128;2023-05-21T02:33:20;6.38;;;3.22;;
7406;SDS011;3745;56.964;24.128;2023-05-21T02:35:47;4.20;;;3.15;;
7406;SDS011;3745;56.964;24.128;2023-05-21T02:38:13;7.53;;;3.40;;
7406;SDS011;3745;56.964;24.128;2023-05-21T02:40:38;5.35;;;3.20;;
7406;SDS011;3745;56.964;24.128;2023-05-21T02:43:04;3.45;;;3.15;;
7406;SDS011;3745;56.964;24.128;2023-05-21T02:45:30;7.88;;;3.50;;
7406;SDS011;3745;56.964;24.128;2023-05-21T02:47:56;5.25;;;3.38;;
7406;SDS011;3745;56.964;24.128;2023-05-21T02:50:22;5.43;;;3.05;;
7406;SDS011;3745;56.964;24.128;2023-05-21T02:52:47;4.85;;;3.72;;
7406;SDS011;3745;56.964;24.128;2023-05-21T02:55:13;3.58;;;3.28;;
7406;SDS011;3745;56.964;24.128;2023-05-21T02:57:39;14.73;;;4.00;;
7406;SDS011;3745;56.964;24.128;2023-05-21T03:00:04;4.70;;;3.22;;
7406;SDS011;3745;56.964;24.128;2023-05-21T03:02:33;7.25;;;3.40;;
7406;SDS011;3745;56.964;24.128;2023-05-21T03:04:59;5.68;;;3.20;;
7406;SDS011;3745;56.964;24.128;2023-05-21T03:07:25;4.30;;;3.90;;
7406;SDS011;3745;56.964;24.128;2023-05-21T03:09:50;6.57;;;3.50;;
7406;SDS011;3745;56.964;24.128;2023-05-21T03:12:16;7.88;;;3.22;;
7406;SDS011;3745;56.964;24.128;2023-05-21T03:14:42;9.82;;;3.53;;
7406;SDS011;3745;56.964;24.128;2023-05-21T03:17:08;5.60;;;3.78;;
7406;SDS011;3745;56.964;24.128;2023-05-21T03:19:38;4.53;;;3.42;;
7406;SDS011;3745;56.964;24.128;2023-05-21T03:22:05;9.90;;;3.70;;
7406;SDS011;3745;56.964;24.128;2023-05-21T03:24:31;3.65;;;3.35;;
7406;SDS011;3745;56.964;24.128;2023-05-21T03:27:00;7.28;;;3.63;;
7406;SDS011;3745;56.964;24.128;2023-05-21T03:29:26;3.63;;;3.33;;
7406;SDS011;3745;56.964;24.128;2023-05-21T03:31:52;4.07;;;3.60;;
7406;SDS011;3745;56.964;24.128;2023-05-21T03:34:18;8.95;;;3.83;;
7406;SDS011;3745;56.964;24.128;2023-05-21T03:36:45;5.95;;;3.65;;
7406;SDS011;3745;56.964;24.128;2023-05-21T03:39:11;7.32;;;3.45;;
7406;SDS011;3745;56.964;24.128;2023-05-21T03:41:37;5.60;;;3.47;;
7406;SDS011;3745;56.964;24.128;2023-05-21T03:44:02;7.13;;;3.72;;
7406;SDS011;3745;56.964;24.128;2023-05-21T03:46:28;8.38;;;3.60;;
7406;SDS011;3745;56.964;24.128;2023-05-21T03:48:54;8.88;;;3.85;;
7406;SDS011;3745;56.964;24.128;2023-05-21T03:51:19;8.60;;;3.47;;
7406;SDS011;3745;56.964;24.128;2023-05-21T03:53:45;6.38;;;3.78;;
7406;SDS011;3745;56.964;24.128;2023-05-21T03:56:10;8.75;;;3.70;;
7406;SDS011;3745;56.964;24.128;2023-05-21T03:58:36;5.35;;;3.10;;
7406;SDS011;3745;56.964;24.128;2023-05-21T04:01:02;5.35;;;3.38;;
7406;SDS011;3745;56.964;24.128;2023-05-21T04:03:29;3.40;;;3.20;;
7406;SDS011;3745;56.964;24.128;2023-05-21T04:05:56;5.25;;;2.85;;
7406;SDS011;3745;56.964;24.128;2023-05-21T04:08:22;4.20;;;3.05;;
7406;SDS011;3745;56.964;24.128;2023-05-21T04:10:47;3.20;;;2.90;;
7406;SDS011;3745;56.964;24.128;2023-05-21T04:13:13;3.22;;;3.03;;
7406;SDS011;3745;56.964;24.128;2023-05-21T04:15:38;4.30;;;2.88;;
7406;SDS011;3745;56.964;24.128;2023-05-21T04:18:04;4.95;;;3.08;;
7406;SDS011;3745;56.964;24.128;2023-05-21T04:20:31;4.22;;;3.25;;
7406;SDS011;3745;56.964;24.128;2023-05-21T04:22:56;3.40;;;3.20;;
7406;SDS011;3745;56.964;24.128;2023-05-21T04:25:22;4.30;;;3.38;;
7406;SDS011;3745;56.964;24.128;2023-05-21T04:27:47;3.33;;;3.00;;
7406;SDS011;3745;56.964;24.128;2023-05-21T04:30:14;3.63;;;3.10;;
7406;SDS011;3745;56.964;24.128;2023-05-21T04:32:40;3.50;;;3.03;;
7406;SDS011;3745;56.964;24.128;2023-05-21T04:35:06;7.25;;;3.35;;
7406;SDS011;3745;56.964;24.128;2023-05-21T04:37:32;3.47;;;3.17;;
7406;SDS011;3745;56.964;24.128;2023-05-21T04:40:00;4.43;;;3.20;;
7406;SDS011;3745;56.964;24.128;2023-05-21T04:42:26;4.05;;;3.15;;
7406;SDS011;3745;56.964;24.128;2023-05-21T04:44:52;7.15;;;3.20;;
7406;SDS011;3745;56.964;24.128;2023-05-21T04:47:19;4.70;;;3.38;;
7406;SDS011;3745;56.964;24.128;2023-05-21T04:49:45;3.10;;;2.90;;
7406;SDS011;3745;56.964;24.128;2023-05-21T04:52:11;9.85;;;3.25;;
7406;SDS011;3745;56.964;24.128;2023-05-21T04:54:37;2.70;;;2.50;;
7406;SDS011;3745;56.964;24.128;2023-05-21T04:57:06;3.03;;;2.60;;
7406;SDS011;3745;56.964;24.128;2023-05-21T04:59:31;4.63;;;3.22;;
7406;SDS011;3745;56.964;24.128;2023-05-21T05:01:57;4.55;;;2.75;;
7406;SDS011;3745;56.964;24.128;2023-05-21T05:04:22;3.50;;;3.17;;
7406;SDS011;3745;56.964;24.128;2023-05-21T05:06:48;4.03;;;3.08;;
7406;SDS011;3745;56.964;24.128;2023-05-21T05:09:14;3.45;;;2.85;;
7406;SDS011;3745;56.964;24.128;2023-05-21T05:11:40;3.03;;;2.72;;
7406;SDS011;3745;56.964;24.128;2023-05-21T05:14:05;3.55;;;2.97;;
7406;SDS011;3745;56.964;24.128;2023-05-21T05:16:31;2.70;;;2.50;;
7406;SDS011;3745;56.964;24.128;2023-05-21T05:18:59;4.45;;;2.60;;
7406;SDS011;3745;56.964;24.128;2023-05-21T05:21:25;3.10;;;2.60;;
7406;SDS011;3745;56.964;24.128;2023-05-21T05:23:51;2.80;;;2.60;;
7406;SDS011;3745;56.964;24.128;2023-05-21T05:26:17;2.88;;;2.58;;
7406;SDS011;3745;56.964;24.128;2023-05-21T05:28:42;3.25;;;3.03;;
7406;SDS011;3745;56.964;24.128;2023-05-21T05:31:10;3.28;;;2.97;;
7406;SDS011;3745;56.964;24.128;2023-05-21T05:33:35;3.15;;;2.92;;
7406;SDS011;3745;56.964;24.128;2023-05-21T05:36:01;3.47;;;2.45;;
7406;SDS011;3745;56.964;24.128;2023-05-21T05:38:27;4.65;;;2.80;;
7406;SDS011;3745;56.964;24.128;2023-05-21T05:40:52;3.03;;;2.55;;
7406;SDS011;3745;56.964;24.128;2023-05-21T05:43:18;4.03;;;2.50;;
7406;SDS011;3745;56.964;24.128;2023-05-21T05:45:43;3.95;;;3.00;;
7406;SDS011;3745;56.964;24.128;2023-05-21T05:48:09;2.80;;;2.55;;
7406;SDS011;3745;56.964;24.128;2023-05-21T05:50:35;3.55;;;2.55;;
7406;SDS011;3745;56.964;24.128;2023-05-21T05:53:01;2.30;;;2.20;;
7406;SDS011;3745;56.964;24.128;2023-05-21T05:55:26;4.10;;;2.35;;
7406;SDS011;3745;56.964;24.128;2023-05-21T05:57:52;3.13;;;2.60;;
7406;SDS011;3745;56.964;24.128;2023-05-21T06:00:17;2.63;;;2.28;;
7406;SDS011;3745;56.964;24.128;2023-05-21T06:02:44;2.42;;;2.33;;
7406;SDS011;3745;56.964;24.128;2023-05-21T06:05:09;3.83;;;2.17;;
7406;SDS011;3745;56.964;24.128;2023-05-21T06:07:38;5.65;;;2.20;;
7406;SDS011;3745;56.964;24.128;2023-05-21T06:10:05;4.65;;;2.03;;
7406;SDS011;3745;56.964;24.128;2023-05-21T06:12:31;2.72;;;2.00;;
7406;SDS011;3745;56.964;24.128;2023-05-21T06:14:57;2.20;;;2.10;;
7406;SDS011;3745;56.964;24.128;2023-05-21T06:17:23;3.72;;;2.40;;
7406;SDS011;3745;56.964;24.128;2023-05-21T06:19:48;2.80;;;2.22;;
7406;SDS011;3745;56.964;24.128;2023-05-21T06:22:14;3.17;;;2.10;;
7406;SDS011;3745;56.964;24.128;2023-05-21T06:24:40;3.60;;;2.03;;
7406;SDS011;3745;56.964;24.128;2023-05-21T06:27:05;2.38;;;2.17;;
7406;SDS011;3745;56.964;24.128;2023-05-21T06:29:31;3.17;;;2.10;;
7406;SDS011;3745;56.964;24.128;2023-05-21T06:31:57;5.40;;;2.05;;
7406;SDS011;3745;56.964;24.128;2023-05-21T06:34:22;2.40;;;2.20;;
7406;SDS011;3745;56.964;24.128;2023-05-21T06:36:48;2.50;;;2.05;;
7406;SDS011;3745;56.964;24.128;2023-05-21T06:39:13;2.35;;;2.25;;
7406;SDS011;3745;56.964;24.128;2023-05-21T06:41:39;4.45;;;2.38;;
7406;SDS011;3745;56.964;24.128;2023-05-21T06:44:04;3.20;;;2.67;;
7406;SDS011;3745;56.964;24.128;2023-05-21T06:46:30;2.72;;;2.53;;
7406;SDS011;3745;56.964;24.128;2023-05-21T06:48:56;2.47;;;2.38;;
7406;SDS011;3745;56.964;24.128;2023-05-21T06:51:22;3.33;;;2.17;;
7406;SDS011;3745;56.964;24.128;2023-05-21T06:53:47;4.63;;;2.33;;
7406;SDS011;3745;56.964;24.128;2023-05-21T06:56:13;2.65;;;2.35;;
7406;SDS011;3745;56.964;24.128;2023-05-21T06:58:39;3.05;;;2.35;;
7406;SDS011;3745;56.964;24.128;2023-05-21T07:01:04;2.50;;;2.30;;
7406;SDS011;3745;56.964;24.128;2023-05-21T07:03:30;2.40;;;2.20;;
7406;SDS011;3745;56.964;24.128;2023-05-21T07:05:56;4.72;;;2.58;;
7406;SDS011;3745;56.964;24.128;2023-05-21T07:08:22;2.67;;;2.58;;
7406;SDS011;3745;56.964;24.128;2023-05-21T07:10:48;4.72;;;2.50;;
7406;SDS011;3745;56.964;24.128;2023-05-21T07:13:14;4.20;;;2.67;;
7406;SDS011;3745;56.964;24.128;2023-05-21T07:15:40;4.10;;;2.70;;
7406;SDS011;3745;56.964;24.128;2023-05-21T07:18:06;4.13;;;2.33;;
7406;SDS011;3745;56.964;24.128;2023-05-21T07:20:32;3.60;;;2.60;;
7406;SDS011;3745;56.964;24.128;2023-05-21T07:22:57;2.28;;;2.17;;
7406;SDS011;3745;56.964;24.128;2023-05-21T07:25:23;2.63;;;2.38;;
7406;SDS011;3745;56.964;24.128;2023-05-21T07:27:49;6.15;;;2.30;;
7406;SDS011;3745;56.964;24.128;2023-05-21T07:30:15;2.83;;;2.20;;
7406;SDS011;3745;56.964;24.128;2023-05-21T07:32:41;1.90;;;1.80;;
7406;SDS011;3745;56.964;24.128;2023-05-21T07:35:06;2.20;;;2.10;;
7406;SDS011;3745;56.964;24.128;2023-05-21T07:37:32;2.15;;;2.05;;
7406;SDS011;3745;56.964;24.128;2023-05-21T07:39:58;2.55;;;2.30;;
7406;SDS011;3745;56.964;24.128;2023-05-21T07:42:24;2.47;;;2.25;;
7406;SDS011;3745;56.964;24.128;2023-05-21T07:44:50;2.42;;;2.33;;
7406;SDS011;3745;56.964;24.128;2023-05-21T07:47:15;2.50;;;2.25;;
7406;SDS011;3745;56.964;24.128;2023-05-21T07:49:41;4.85;;;2.60;;
7406;SDS011;3745;56.964;24.128;2023-05-21T07:52:07;3.85;;;2.40;;
7406;SDS011;3745;56.964;24.128;2023-05-21T07:54:32;2.72;;;2.30;;
7406;SDS011;3745;56.964;24.128;2023-05-21T07:57:00;2.85;;;2.40;;
7406;SDS011;3745;56.964;24.128;2023-05-21T07:59:28;2.92;;;2.17;;
7406;SDS011;3745;56.964;24.128;2023-05-21T08:01:54;2.33;;;2.17;;
7406;SDS011;3745;56.964;24.128;2023-05-21T08:04:19;2.78;;;2.00;;
7406;SDS011;3745;56.964;24.128;2023-05-21T08:06:45;2.40;;;2.30;;
7406;SDS011;3745;56.964;24.128;2023-05-21T08:09:12;5.38;;;2.22;;
7406;SDS011;3745;56.964;24.128;2023-05-21T08:11:38;2.60;;;2.40;;
7406;SDS011;3745;56.964;24.128;2023-05-21T08:14:03;2.50;;;2.25;;
7406;SDS011;3745;56.964;24.128;2023-05-21T08:16:29;2.60;;;2.13;;
7406;SDS011;3745;56.964;24.128;2023-05-21T08:18:55;2.58;;;2.38;;
7406;SDS011;3745;56.964;24.128;2023-05-21T08:21:21;2.33;;;2.13;;
7406;SDS011;3745;56.964;24.128;2023-05-21T08:23:46;2.85;;;2.08;;
7406;SDS011;3745;56.964;24.128;2023-05-21T08:26:12;4.22;;;2.47;;
7406;SDS011;3745;56.964;24.128;2023-05-21T08:28:40;2.47;;;2.33;;
7406;SDS011;3745;56.964;24.128;2023-05-21T08:31:06;2.47;;;2.38;;
7406;SDS011;3745;56.964;24.128;2023-05-21T08:33:34;4.03;;;2.33;;
7406;SDS011;3745;56.964;24.128;2023-05-21T08:36:06;2.50;;;2.33;;
7406;SDS011;3745;56.964;24.128;2023-05-21T08:38:31;3.97;;;2.45;;
7406;SDS011;3745;56.964;24.128;2023-05-21T08:40:58;3.60;;;2.28;;
7406;SDS011;3745;56.964;24.128;2023-05-21T08:43:27;2.58;;;2.35;;
7406;SDS011;3745;56.964;24.128;2023-05-21T08:45:54;3.13;;;1.95;;
7406;SDS011;3745;56.964;24.128;2023-05-21T08:48:21;2.45;;;1.90;;
7406;SDS011;3745;56.964;24.128;2023-05-21T08:50:49;3.00;;;2.22;;
7406;SDS011;3745;56.964;24.128;2023-05-21T08:53:16;3.30;;;2.20;;
7406;SDS011;3745;56.964;24.128;2023-05-21T08:55:42;2.10;;;1.90;;
7406;SDS011;3745;56.964;24.128;2023-05-21T08:58:07;2.10;;;1.95;;
7406;SDS011;3745;56.964;24.128;2023-05-21T09:00:34;2.13;;;2.03;;
7406;SDS011;3745;56.964;24.128;2023-05-21T09:03:02;1.90;;;1.80;;
7406;SDS011;3745;56.964;24.128;2023-05-21T09:05:32;2.00;;;1.90;;
7406;SDS011;3745;56.964;24.128;2023-05-21T09:10:50;5.75;;;1.90;;
7406;SDS011;3745;56.964;24.128;2023-05-21T09:13:16;2.88;;;2.20;;
7406;SDS011;3745;56.964;24.128;2023-05-21T09:15:43;2.10;;;2.00;;
7406;SDS011;3745;56.964;24.128;2023-05-21T09:18:10;2.78;;;2.08;;
7406;SDS011;3745;56.964;24.128;2023-05-21T09:20:36;3.00;;;2.00;;
7406;SDS011;3745;56.964;24.128;2023-05-21T09:23:03;2.38;;;2.28;;
7406;SDS011;3745;56.964;24.128;2023-05-21T09:25:30;5.15;;;2.30;;
7406;SDS011;3745;56.964;24.128;2023-05-21T09:27:56;7.32;;;2.00;;
7406;SDS011;3745;56.964;24.128;2023-05-21T09:30:22;2.20;;;2.10;;
7406;SDS011;3745;56.964;24.128;2023-05-21T09:32:51;3.97;;;2.08;;
7406;SDS011;3745;56.964;24.128;2023-05-21T09:35:20;2.22;;;2.13;;
7406;SDS011;3745;56.964;24.128;2023-05-21T09:37:49;2.30;;;2.20;;
7406;SDS011;3745;56.964;24.128;2023-05-21T09:40:20;3.60;;;2.17;;
7406;SDS011;3745;56.964;24.128;2023-05-21T09:42:53;3.67;;;2.30;;
7406;SDS011;3745;56.964;24.128;2023-05-21T09:47:51;2.25;;;2.15;;
7406;SDS011;3745;56.964;24.128;2023-05-21T09:50:18;5.82;;;2.28;;
7406;SDS011;3745;56.964;24.128;2023-05-21T09:52:48;3.22;;;2.47;;
7406;SDS011;3745;56.964;24.128;2023-05-21T09:55:16;3.58;;;2.50;;
7406;SDS011;3745;56.964;24.128;2023-05-21T09:57:47;2.05;;;1.95;;
7406;SDS011;3745;56.964;24.128;2023-05-21T10:00:20;4.40;;;2.35;;
7406;SDS011;3745;56.964;24.128;2023-05-21T10:02:48;6.07;;;2.58;;
7406;SDS011;3745;56.964;24.128;2023-05-21T10:05:15;3.50;;;2.22;;
7406;SDS011;3745;56.964;24.128;2023-05-21T10:07:51;2.58;;;2.38;;
7406;SDS011;3745;56.964;24.128;2023-05-21T10:10:19;3.25;;;2.50;;
7406;SDS011;3745;56.964;24.128;2023-05-21T10:12:51;3.92;;;2.60;;
7406;SDS011;3745;56.964;24.128;2023-05-21T10:15:23;3.53;;;2.28;;
7406;SDS011;3745;56.964;24.128;2023-05-21T10:17:50;5.25;;;2.58;;
7406;SDS011;3745;56.964;24.128;2023-05-21T10:20:16;3.17;;;2.28;;
7406;SDS011;3745;56.964;24.128;2023-05-21T10:22:43;3.65;;;2.58;;
7406;SDS011;3745;56.964;24.128;2023-05-21T10:25:09;2.30;;;2.17;;
7406;SDS011;3745;56.964;24.128;2023-05-21T10:27:36;5.00;;;2.17;;
7406;SDS011;3745;56.964;24.128;2023-05-21T10:30:03;2.42;;;2.20;;
7406;SDS011;3745;56.964;24.128;2023-05-21T10:32:30;2.70;;;2.40;;
7406;SDS011;3745;56.964;24.128;2023-05-21T10:34:56;2.53;;;2.33;;
7406;SDS011;3745;56.964;24.128;2023-05-21T10:37:23;2.80;;;2.47;;
7406;SDS011;3745;56.964;24.128;2023-05-21T10:39:51;4.10;;;2.65;;
7406;SDS011;3745;56.964;24.128;2023-05-21T10:55:49;2.28;;;2.17;;
7406;SDS011;3745;56.964;24.128;2023-05-21T10:58:31;2.45;;;2.25;;
7406;SDS011;3745;56.964;24.128;2023-05-21T11:01:17;4.55;;;2.58;;
7406;SDS011;3745;56.964;24.128;2023-05-21T11:03:45;2.78;;;2.33;;
7406;SDS011;3745;56.964;24.128;2023-05-21T11:06:20;5.07;;;2.50;;
7406;SDS011;3745;56.964;24.128;2023-05-21T11:08:48;2.80;;;2.20;;
7406;SDS011;3745;56.964;24.128;2023-05-21T11:11:34;3.22;;;2.25;;
7406;SDS011;3745;56.964;24.128;2023-05-21T11:19:34;2.92;;;2.63;;
7406;SDS011;3745;56.964;24.128;2023-05-21T11:22:03;5.93;;;2.72;;
7406;SDS011;3745;56.964;24.128;2023-05-21T11:24:45;4.30;;;2.70;;
7406;SDS011;3745;56.964;24.128;2023-05-21T11:27:11;2.63;;;2.42;;
7406;SDS011;3745;56.964;24.128;2023-05-21T11:29:41;2.40;;;2.25;;
7406;SDS011;3745;56.964;24.128;2023-05-21T11:32:08;2.88;;;2.53;;
7406;SDS011;3745;56.964;24.128;2023-05-21T11:34:36;2.35;;;2.25;;
7406;SDS011;3745;56.964;24.128;2023-05-21T11:40:18;4.43;;;2.55;;
7406;SDS011;3745;56.964;24.128;2023-05-21T11:42:48;5.15;;;2.42;;
7406;SDS011;3745;56.964;24.128;2023-05-21T11:45:17;2.72;;;2.53;;
7406;SDS011;3745;56.964;24.128;2023-05-21T11:47:44;6.65;;;2.78;;
7406;SDS011;3745;56.964;24.128;2023-05-21T11:50:11;3.88;;;2.35;;
7406;SDS011;3745;56.964;24.128;2023-05-21T11:52:38;4.50;;;2.40;;
7406;SDS011;3745;56.964;24.128;2023-05-21T11:55:06;2.40;;;2.30;;
7406;SDS011;3745;56.964;24.128;2023-05-21T11:57:33;3.25;;;2.67;;
7406;SDS011;3745;56.964;24.128;2023-05-21T11:59:59;8.07;;;2.53;;
7406;SDS011;3745;56.964;24.128;2023-05-21T12:02:26;5.70;;;2.70;;
7406;SDS011;3745;56.964;24.128;2023-05-21T12:04:55;2.33;;;2.10;;
7406;SDS011;3745;56.964;24.128;2023-05-21T12:07:25;4.97;;;2.28;;
7406;SDS011;3745;56.964;24.128;2023-05-21T12:09:55;2.53;;;2.33;;
7406;SDS011;3745;56.964;24.128;2023-05-21T12:12:21;2.35;;;2.25;;
7406;SDS011;3745;56.964;24.128;2023-05-21T12:14:49;3.03;;;2.30;;
7406;SDS011;3745;56.964;24.128;2023-05-21T12:17:19;2.40;;;2.20;;
7406;SDS011;3745;56.964;24.128;2023-05-21T12:19:47;2.40;;;2.30;;
7406;SDS011;3745;56.964;24.128;2023-05-21T12:22:13;3.45;;;2.20;;
7406;SDS011;3745;56.964;24.128;2023-05-21T12:24:40;3.05;;;2.42;;
7406;SDS011;3745;56.964;24.128;2023-05-21T12:27:10;2.58;;;2.20;;
7406;SDS011;3745;56.964;24.128;2023-05-21T12:29:40;3.25;;;2.63;;
7406;SDS011;3745;56.964;24.128;2023-05-21T12:32:08;2.90;;;2.60;;
7406;SDS011;3745;56.964;24.128;2023-05-21T12:34:42;2.85;;;2.50;;
7406;SDS011;3745;56.964;24.128;2023-05-21T12:39:41;4.50;;;2.30;;
7406;SDS011;3745;56.964;24.128;2023-05-21T12:42:08;2.70;;;2.50;;
7406;SDS011;3745;56.964;24.128;2023-05-21T12:44:34;4.13;;;2.90;;
7406;SDS011;3745;56.964;24.128;2023-05-21T12:47:00;2.80;;;2.60;;
7406;SDS011;3745;56.964;24.128;2023-05-21T12:49:39;3.80;;;2.38;;
7406;SDS011;3745;56.964;24.128;2023-05-21T12:52:07;6.03;;;2.88;;
7406;SDS011;3745;56.964;24.128;2023-05-21T12:54:35;2.72;;;2.50;;
7406;SDS011;3745;56.964;24.128;2023-05-21T12:57:09;2.92;;;2.35;;
7406;SDS011;3745;56.964;24.128;2023-05-21T12:59:44;3.13;;;2.92;;
7406;SDS011;3745;56.964;24.128;2023-05-21T13:02:18;3.22;;;2.78;;
7406;SDS011;3745;56.964;24.128;2023-05-21T13:04:46;2.28;;;2.17;;
7406;SDS011;3745;56.964;24.128;2023-05-21T13:07:13;4.97;;;2.58;;
7406;SDS011;3745;56.964;24.128;2023-05-21T13:09:40;4.30;;;2.40;;
7406;SDS011;3745;56.964;24.128;2023-05-21T13:12:06;2.60;;;2.40;;
7406;SDS011;3745;56.964;24.128;2023-05-21T13:14:32;2.53;;;2.33;;
7406;SDS011;3745;56.964;24.128;2023-05-21T13:16:57;2.70;;;2.60;;
7406;SDS011;3745;56.964;24.128;2023-05-21T13:19:23;2.90;;;2.70;;
7406;SDS011;3745;56.964;24.128;2023-05-21T13:21:49;2.35;;;2.17;;
7406;SDS011;3745;56.964;24.128;2023-05-21T13:24:14;2.83;;;2.63;;
7406;SDS011;3745;56.964;24.128;2023-05-21T13:26:40;4.25;;;2.25;;
7406;SDS011;3745;56.964;24.128;2023-05-21T13:29:05;6.57;;;3.00;;
7406;SDS011;3745;56.964;24.128;2023-05-21T13:31:31;7.70;;;2.47;;
7406;SDS011;3745;56.964;24.128;2023-05-21T13:33:57;5.95;;;2.78;;
7406;SDS011;3745;56.964;24.128;2023-05-21T13:36:22;3.10;;;2.90;;
7406;SDS011;3745;56.964;24.128;2023-05-21T13:38:48;2.97;;;2.78;;
7406;SDS011;3745;56.964;24.128;2023-05-21T13:41:13;3.28;;;2.80;;
7406;SDS011;3745;56.964;24.128;2023-05-21T13:43:42;9.82;;;2.63;;
7406;SDS011;3745;56.964;24.128;2023-05-21T13:46:07;7.22;;;3.17;;
7406;SDS011;3745;56.964;24.128;2023-05-21T13:48:33;3.60;;;2.67;;
7406;SDS011;3745;56.964;24.128;2023-05-21T13:50:58;3.95;;;2.70;;
7406;SDS011;3745;56.964;24.128;2023-05-21T13:53:24;3.22;;;2.90;;
7406;SDS011;3745;56.964;24.128;2023-05-21T13:55:50;4.00;;;2.85;;
7406;SDS011;3745;56.964;24.128;2023-05-21T13:58:16;3.83;;;3.17;;
7406;SDS011;3745;56.964;24.128;2023-05-21T14:00:41;3.15;;;2.80;;
7406;SDS011;3745;56.964;24.128;2023-05-21T14:03:07;3.20;;;2.90;;
7406;SDS011;3745;56.964;24.128;2023-05-21T14:05:34;3.25;;;2.72;;
7406;SDS011;3745;56.964;24.128;2023-05-21T14:08:00;3.33;;;2.88;;
7406;SDS011;3745;56.964;24.128;2023-05-21T14:10:26;7.03;;;2.72;;
7406;SDS011;3745;56.964;24.128;2023-05-21T14:12:52;5.18;;;3.30;;
7406;SDS011;3745;56.964;24.128;2023-05-21T14:15:17;3.35;;;3.08;;
7406;SDS011;3745;56.964;24.128;2023-05-21T14:17:43;3.20;;;3.00;;
7406;SDS011;3745;56.964;24.128;2023-05-21T14:20:09;3.47;;;2.85;;
7406;SDS011;3745;56.964;24.128;2023-05-21T14:22:36;5.28;;;3.20;;
7406;SDS011;3745;56.964;24.128;2023-05-21T14:25:02;3.47;;;3.20;;
7406;SDS011;3745;56.964;24.128;2023-05-21T14:27:28;4.13;;;3.72;;
7406;SDS011;3745;56.964;24.128;2023-05-21T14:29:54;3.63;;;3.15;;
7406;SDS011;3745;56.964;24.128;2023-05-21T14:32:19;5.20;;;3.83;;
7406;SDS011;3745;56.964;24.128;2023-05-21T14:34:45;7.25;;;3.88;;
7406;SDS011;3745;56.964;24.128;2023-05-21T14:37:11;7.32;;;4.63;;
7406;SDS011;3745;56.964;24.128;2023-05-21T14:39:37;4.40;;;3.65;;
7406;SDS011;3745;56.964;24.128;2023-05-21T14:42:03;9.95;;;3.78;;
7406;SDS011;3745;56.964;24.128;2023-05-21T14:44:29;5.93;;;2.80;;
7406;SDS011;3745;56.964;24.128;2023-05-21T14:46:55;3.40;;;3.10;;
7406;SDS011;3745;56.964;24.128;2023-05-21T14:49:20;4.18;;;2.95;;
7406;SDS011;3745;56.964;24.128;2023-05-21T14:51:46;7.32;;;2.80;;
7406;SDS011;3745;56.964;24.128;2023-05-21T14:54:11;3.50;;;2.78;;
7406;SDS011;3745;56.964;24.128;2023-05-21T14:56:37;3.17;;;2.92;;
7406;SDS011;3745;56.964;24.128;2023-05-21T14:59:03;3.50;;;2.80;;
7406;SDS011;3745;56.964;24.128;2023-05-21T15:01:28;3.42;;;2.88;;
7406;SDS011;3745;56.964;24.128;2023-05-21T15:03:54;3.10;;;2.90;;
7406;SDS011;3745;56.964;24.128;2023-05-21T15:06:22;5.47;;;3.15;;
7406;SDS011;3745;56.964;24.128;2023-05-21T15:08:48;6.43;;;2.70;;
7406;SDS011;3745;56.964;24.128;2023-05-21T15:11:13;2.90;;;2.70;;
7406;SDS011;3745;56.964;24.128;2023-05-21T15:13:39;7.18;;;2.90;;
7406;SDS011;3745;56.964;24.128;2023-05-21T15:16:05;3.30;;;3.00;;
7406;SDS011;3745;56.964;24.128;2023-05-21T15:18:31;4.28;;;3.08;;
7406;SDS011;3745;56.964;24.128;2023-05-21T15:20:57;2.80;;;2.60;;
7406;SDS011;3745;56.964;24.128;2023-05-21T15:23:23;3.00;;;2.80;;
7406;SDS011;3745;56.964;24.128;2023-05-21T15:25:49;6.18;;;2.88;;
7406;SDS011;3745;56.964;24.128;2023-05-21T15:28:14;3.85;;;3.17;;